Flagler Beach, Florida
Current Conditions -  °F | °C
As of 6:53 AM on Monday 22 Dec 2014 (Local Time) from KDAB Reporting Station
Overcast Overcast  
Wind Chill: 66°   Ceiling: 6000
Heat Index: 66°   Visibility: 9mi
Dew Point: 65°   Wind: 0mph
Humidity: 96%   Direction: NA
Pressure: 30.01"   Gusts: NA
Location:  29.47°N, 81.13°W
Report Text: KDAB 221153Z 00000KT 9SM FEW003 BKN060 OVC250 19/18 A3001 RMK AO2 SLP163 60129 70192 T01890183 10189 20189 55015
Loading
Personal Weather Stations






























Interactive Weather Map New forecast layout! Learn more

10-Day Weather Forecast

Advertisements
Track Severe Weather on mobile